sensor_id;sensor_type;location;lat;lon;timestamp;P1;durP1;ratioP1;P2;durP2;ratioP2
70373;SDS011;57792;49.198;7.890;2022-08-19T00:00:47;22.75;;;14.38;;
70373;SDS011;57792;49.198;7.890;2022-08-19T00:01:48;23.00;;;14.00;;
70373;SDS011;57792;49.198;7.890;2022-08-19T00:02:50;22.77;;;13.05;;
70373;SDS011;57792;49.198;7.890;2022-08-19T00:03:51;24.13;;;13.07;;
70373;SDS011;57792;49.198;7.890;2022-08-19T00:04:51;21.92;;;13.68;;
70373;SDS011;57792;49.198;7.890;2022-08-19T00:05:55;23.45;;;15.25;;
70373;SDS011;57792;49.198;7.890;2022-08-19T00:06:55;25.43;;;14.27;;
70373;SDS011;57792;49.198;7.890;2022-08-19T00:07:55;22.17;;;13.90;;
70373;SDS011;57792;49.198;7.890;2022-08-19T00:08:56;24.87;;;13.70;;
70373;SDS011;57792;49.198;7.890;2022-08-19T00:09:57;22.70;;;13.77;;
70373;SDS011;57792;49.198;7.890;2022-08-19T00:10:57;23.73;;;14.23;;
70373;SDS011;57792;49.198;7.890;2022-08-19T00:11:58;23.33;;;14.20;;
70373;SDS011;57792;49.198;7.890;2022-08-19T00:12:59;22.80;;;13.93;;
70373;SDS011;57792;49.198;7.890;2022-08-19T00:13:59;23.33;;;14.03;;
70373;SDS011;57792;49.198;7.890;2022-08-19T00:15:00;23.33;;;13.83;;
70373;SDS011;57792;49.198;7.890;2022-08-19T00:16:01;22.38;;;13.43;;
70373;SDS011;57792;49.198;7.890;2022-08-19T00:17:02;21.38;;;13.50;;
70373;SDS011;57792;49.198;7.890;2022-08-19T00:18:04;23.53;;;13.37;;
70373;SDS011;57792;49.198;7.890;2022-08-19T00:19:05;22.52;;;13.63;;
70373;SDS011;57792;49.198;7.890;2022-08-19T00:20:06;27.00;;;15.37;;
70373;SDS011;57792;49.198;7.890;2022-08-19T00:21:07;25.40;;;15.15;;
70373;SDS011;57792;49.198;7.890;2022-08-19T00:22:08;23.92;;;13.88;;
70373;SDS011;57792;49.198;7.890;2022-08-19T00:23:08;23.53;;;13.63;;
70373;SDS011;57792;49.198;7.890;2022-08-19T00:24:10;24.60;;;14.07;;
70373;SDS011;57792;49.198;7.890;2022-08-19T00:25:12;25.60;;;14.30;;
70373;SDS011;57792;49.198;7.890;2022-08-19T00:26:12;24.17;;;13.90;;
70373;SDS011;57792;49.198;7.890;2022-08-19T00:27:13;22.35;;;13.57;;
70373;SDS011;57792;49.198;7.890;2022-08-19T00:28:13;23.60;;;13.53;;
70373;SDS011;57792;49.198;7.890;2022-08-19T00:29:16;24.83;;;14.10;;
70373;SDS011;57792;49.198;7.890;2022-08-19T00:30:19;24.65;;;13.43;;
70373;SDS011;57792;49.198;7.890;2022-08-19T00:31:19;24.20;;;14.00;;
70373;SDS011;57792;49.198;7.890;2022-08-19T00:32:20;22.38;;;14.10;;
70373;SDS011;57792;49.198;7.890;2022-08-19T00:33:22;23.73;;;13.90;;
70373;SDS011;57792;49.198;7.890;2022-08-19T00:34:22;24.52;;;14.60;;
70373;SDS011;57792;49.198;7.890;2022-08-19T00:35:23;24.35;;;13.57;;
70373;SDS011;57792;49.198;7.890;2022-08-19T00:36:24;22.57;;;14.20;;
70373;SDS011;57792;49.198;7.890;2022-08-19T00:37:24;24.63;;;13.90;;
70373;SDS011;57792;49.198;7.890;2022-08-19T00:38:25;24.75;;;14.68;;
70373;SDS011;57792;49.198;7.890;2022-08-19T00:39:26;23.60;;;14.17;;
70373;SDS011;57792;49.198;7.890;2022-08-19T00:40:27;23.83;;;14.30;;
70373;SDS011;57792;49.198;7.890;2022-08-19T00:41:27;27.17;;;14.33;;
70373;SDS011;57792;49.198;7.890;2022-08-19T00:42:28;23.73;;;14.63;;
70373;SDS011;57792;49.198;7.890;2022-08-19T00:43:28;23.33;;;13.83;;
70373;SDS011;57792;49.198;7.890;2022-08-19T00:44:29;26.37;;;15.27;;
70373;SDS011;57792;49.198;7.890;2022-08-19T00:45:30;23.90;;;14.32;;
70373;SDS011;57792;49.198;7.890;2022-08-19T00:46:37;24.42;;;14.75;;
70373;SDS011;57792;49.198;7.890;2022-08-19T00:47:39;23.02;;;13.98;;
70373;SDS011;57792;49.198;7.890;2022-08-19T00:48:40;25.48;;;14.32;;
70373;SDS011;57792;49.198;7.890;2022-08-19T00:49:41;23.10;;;14.43;;
70373;SDS011;57792;49.198;7.890;2022-08-19T00:50:48;23.80;;;13.43;;
70373;SDS011;57792;49.198;7.890;2022-08-19T00:51:51;26.42;;;14.35;;
70373;SDS011;57792;49.198;7.890;2022-08-19T00:52:55;22.67;;;14.07;;
70373;SDS011;57792;49.198;7.890;2022-08-19T00:53:56;23.35;;;13.60;;
70373;SDS011;57792;49.198;7.890;2022-08-19T00:54:59;22.70;;;13.80;;
70373;SDS011;57792;49.198;7.890;2022-08-19T00:56:00;27.05;;;15.65;;
70373;SDS011;57792;49.198;7.890;2022-08-19T00:57:04;22.02;;;13.93;;
70373;SDS011;57792;49.198;7.890;2022-08-19T00:58:09;24.67;;;14.20;;
70373;SDS011;57792;49.198;7.890;2022-08-19T00:59:12;23.02;;;14.05;;
70373;SDS011;57792;49.198;7.890;2022-08-19T01:00:15;20.88;;;13.23;;
70373;SDS011;57792;49.198;7.890;2022-08-19T01:01:18;25.83;;;14.75;;
70373;SDS011;57792;49.198;7.890;2022-08-19T01:02:18;23.57;;;13.80;;
70373;SDS011;57792;49.198;7.890;2022-08-19T01:03:20;22.38;;;13.90;;
70373;SDS011;57792;49.198;7.890;2022-08-19T01:04:21;25.92;;;14.50;;
70373;SDS011;57792;49.198;7.890;2022-08-19T01:05:26;23.67;;;13.77;;
70373;SDS011;57792;49.198;7.890;2022-08-19T01:06:29;23.88;;;14.20;;
70373;SDS011;57792;49.198;7.890;2022-08-19T01:07:32;21.88;;;14.02;;
70373;SDS011;57792;49.198;7.890;2022-08-19T01:08:34;23.30;;;13.98;;
70373;SDS011;57792;49.198;7.890;2022-08-19T01:09:35;24.60;;;14.57;;
70373;SDS011;57792;49.198;7.890;2022-08-19T01:10:37;23.80;;;13.67;;
70373;SDS011;57792;49.198;7.890;2022-08-19T01:11:41;23.88;;;14.25;;
70373;SDS011;57792;49.198;7.890;2022-08-19T01:12:45;24.83;;;14.43;;
70373;SDS011;57792;49.198;7.890;2022-08-19T01:13:47;25.08;;;14.55;;
70373;SDS011;57792;49.198;7.890;2022-08-19T01:14:48;24.35;;;14.75;;
70373;SDS011;57792;49.198;7.890;2022-08-19T01:15:51;22.55;;;14.40;;
70373;SDS011;57792;49.198;7.890;2022-08-19T01:16:56;24.00;;;14.20;;
70373;SDS011;57792;49.198;7.890;2022-08-19T01:18:01;25.92;;;14.38;;
70373;SDS011;57792;49.198;7.890;2022-08-19T01:19:17;22.53;;;14.23;;
70373;SDS011;57792;49.198;7.890;2022-08-19T01:20:25;23.00;;;13.98;;
70373;SDS011;57792;49.198;7.890;2022-08-19T01:21:39;24.42;;;14.55;;
70373;SDS011;57792;49.198;7.890;2022-08-19T01:22:50;28.38;;;15.30;;
70373;SDS011;57792;49.198;7.890;2022-08-19T01:23:53;23.08;;;14.13;;
70373;SDS011;57792;49.198;7.890;2022-08-19T01:24:54;23.33;;;14.03;;
70373;SDS011;57792;49.198;7.890;2022-08-19T01:25:54;23.55;;;14.43;;
70373;SDS011;57792;49.198;7.890;2022-08-19T01:26:56;22.43;;;14.07;;
70373;SDS011;57792;49.198;7.890;2022-08-19T01:27:57;24.80;;;13.88;;
70373;SDS011;57792;49.198;7.890;2022-08-19T01:28:58;23.85;;;14.63;;
70373;SDS011;57792;49.198;7.890;2022-08-19T01:30:01;23.65;;;13.90;;
70373;SDS011;57792;49.198;7.890;2022-08-19T01:31:01;23.90;;;14.40;;
70373;SDS011;57792;49.198;7.890;2022-08-19T01:32:02;25.23;;;14.40;;
70373;SDS011;57792;49.198;7.890;2022-08-19T01:33:03;24.33;;;14.55;;
70373;SDS011;57792;49.198;7.890;2022-08-19T01:34:06;24.55;;;13.48;;
70373;SDS011;57792;49.198;7.890;2022-08-19T01:35:07;21.80;;;14.20;;
70373;SDS011;57792;49.198;7.890;2022-08-19T01:36:11;24.58;;;14.25;;
70373;SDS011;57792;49.198;7.890;2022-08-19T01:37:13;27.02;;;14.32;;
70373;SDS011;57792;49.198;7.890;2022-08-19T01:38:26;24.38;;;14.13;;
70373;SDS011;57792;49.198;7.890;2022-08-19T01:39:31;24.70;;;14.50;;
70373;SDS011;57792;49.198;7.890;2022-08-19T01:40:32;23.93;;;14.93;;
70373;SDS011;57792;49.198;7.890;2022-08-19T01:41:35;24.63;;;14.45;;
70373;SDS011;57792;49.198;7.890;2022-08-19T01:42:35;25.55;;;14.85;;
70373;SDS011;57792;49.198;7.890;2022-08-19T01:43:37;24.80;;;14.60;;
70373;SDS011;57792;49.198;7.890;2022-08-19T01:44:39;24.25;;;14.32;;
70373;SDS011;57792;49.198;7.890;2022-08-19T01:45:41;24.60;;;14.80;;
70373;SDS011;57792;49.198;7.890;2022-08-19T01:46:42;25.17;;;14.85;;
70373;SDS011;57792;49.198;7.890;2022-08-19T01:47:43;25.70;;;14.35;;
70373;SDS011;57792;49.198;7.890;2022-08-19T01:48:44;24.57;;;14.10;;
70373;SDS011;57792;49.198;7.890;2022-08-19T01:49:45;22.92;;;14.35;;
70373;SDS011;57792;49.198;7.890;2022-08-19T01:50:46;24.20;;;14.23;;
70373;SDS011;57792;49.198;7.890;2022-08-19T01:51:48;25.45;;;14.40;;
70373;SDS011;57792;49.198;7.890;2022-08-19T01:52:49;23.23;;;14.52;;
70373;SDS011;57792;49.198;7.890;2022-08-19T01:53:50;24.45;;;14.23;;
70373;SDS011;57792;49.198;7.890;2022-08-19T01:54:51;25.67;;;14.90;;
70373;SDS011;57792;49.198;7.890;2022-08-19T01:55:51;25.27;;;14.68;;
70373;SDS011;57792;49.198;7.890;2022-08-19T01:56:53;25.07;;;14.00;;
70373;SDS011;57792;49.198;7.890;2022-08-19T01:57:59;23.23;;;13.93;;
70373;SDS011;57792;49.198;7.890;2022-08-19T01:59:04;24.55;;;14.25;;
70373;SDS011;57792;49.198;7.890;2022-08-19T02:00:17;26.17;;;14.57;;
70373;SDS011;57792;49.198;7.890;2022-08-19T02:01:20;25.88;;;14.45;;
70373;SDS011;57792;49.198;7.890;2022-08-19T02:02:20;25.43;;;14.50;;
70373;SDS011;57792;49.198;7.890;2022-08-19T02:03:21;23.13;;;13.80;;
70373;SDS011;57792;49.198;7.890;2022-08-19T02:04:21;23.40;;;14.25;;
70373;SDS011;57792;49.198;7.890;2022-08-19T02:05:23;23.40;;;14.13;;
70373;SDS011;57792;49.198;7.890;2022-08-19T02:06:23;27.10;;;15.53;;
70373;SDS011;57792;49.198;7.890;2022-08-19T02:07:24;25.40;;;15.07;;
70373;SDS011;57792;49.198;7.890;2022-08-19T02:08:27;25.15;;;14.88;;
70373;SDS011;57792;49.198;7.890;2022-08-19T02:09:30;26.25;;;14.70;;
70373;SDS011;57792;49.198;7.890;2022-08-19T02:10:31;26.00;;;14.60;;
70373;SDS011;57792;49.198;7.890;2022-08-19T02:11:33;24.83;;;14.90;;
70373;SDS011;57792;49.198;7.890;2022-08-19T02:12:35;27.38;;;15.40;;
70373;SDS011;57792;49.198;7.890;2022-08-19T02:13:36;25.80;;;15.13;;
70373;SDS011;57792;49.198;7.890;2022-08-19T02:14:36;26.73;;;15.30;;
70373;SDS011;57792;49.198;7.890;2022-08-19T02:15:37;23.77;;;14.33;;
70373;SDS011;57792;49.198;7.890;2022-08-19T02:16:37;24.85;;;14.98;;
70373;SDS011;57792;49.198;7.890;2022-08-19T02:17:38;27.47;;;14.97;;
70373;SDS011;57792;49.198;7.890;2022-08-19T02:18:39;25.17;;;14.52;;
70373;SDS011;57792;49.198;7.890;2022-08-19T02:19:40;24.37;;;15.10;;
70373;SDS011;57792;49.198;7.890;2022-08-19T02:20:41;27.00;;;15.97;;
70373;SDS011;57792;49.198;7.890;2022-08-19T02:21:43;27.73;;;15.20;;
70373;SDS011;57792;49.198;7.890;2022-08-19T02:22:44;26.08;;;14.82;;
70373;SDS011;57792;49.198;7.890;2022-08-19T02:23:45;26.93;;;14.57;;
70373;SDS011;57792;49.198;7.890;2022-08-19T02:24:45;28.77;;;15.77;;
70373;SDS011;57792;49.198;7.890;2022-08-19T02:25:48;29.58;;;15.63;;
70373;SDS011;57792;49.198;7.890;2022-08-19T02:26:48;23.73;;;14.73;;
70373;SDS011;57792;49.198;7.890;2022-08-19T02:27:49;24.47;;;14.10;;
70373;SDS011;57792;49.198;7.890;2022-08-19T02:28:49;28.00;;;15.38;;
70373;SDS011;57792;49.198;7.890;2022-08-19T02:29:50;24.43;;;15.00;;
70373;SDS011;57792;49.198;7.890;2022-08-19T02:30:51;28.80;;;16.10;;
70373;SDS011;57792;49.198;7.890;2022-08-19T02:31:51;26.77;;;15.33;;
70373;SDS011;57792;49.198;7.890;2022-08-19T02:32:52;27.40;;;15.10;;
70373;SDS011;57792;49.198;7.890;2022-08-19T02:33:53;28.77;;;15.27;;
70373;SDS011;57792;49.198;7.890;2022-08-19T02:34:55;29.73;;;16.63;;
70373;SDS011;57792;49.198;7.890;2022-08-19T02:35:55;28.57;;;17.07;;
70373;SDS011;57792;49.198;7.890;2022-08-19T02:36:56;24.10;;;14.52;;
70373;SDS011;57792;49.198;7.890;2022-08-19T02:37:56;26.43;;;15.97;;
70373;SDS011;57792;49.198;7.890;2022-08-19T02:39:15;27.08;;;15.05;;
70373;SDS011;57792;49.198;7.890;2022-08-19T02:40:16;25.23;;;15.47;;
70373;SDS011;57792;49.198;7.890;2022-08-19T02:41:18;25.60;;;14.65;;
70373;SDS011;57792;49.198;7.890;2022-08-19T02:42:21;25.90;;;14.98;;
70373;SDS011;57792;49.198;7.890;2022-08-19T02:43:21;25.97;;;14.93;;
70373;SDS011;57792;49.198;7.890;2022-08-19T02:44:22;26.40;;;15.18;;
70373;SDS011;57792;49.198;7.890;2022-08-19T02:45:22;24.37;;;15.37;;
70373;SDS011;57792;49.198;7.890;2022-08-19T02:46:25;26.27;;;15.43;;
70373;SDS011;57792;49.198;7.890;2022-08-19T02:47:27;26.90;;;15.93;;
70373;SDS011;57792;49.198;7.890;2022-08-19T02:48:27;27.03;;;15.73;;
70373;SDS011;57792;49.198;7.890;2022-08-19T02:49:28;28.90;;;15.27;;
70373;SDS011;57792;49.198;7.890;2022-08-19T02:50:31;28.40;;;15.88;;
70373;SDS011;57792;49.198;7.890;2022-08-19T02:51:32;26.65;;;15.45;;
70373;SDS011;57792;49.198;7.890;2022-08-19T02:52:38;24.33;;;15.25;;
70373;SDS011;57792;49.198;7.890;2022-08-19T02:53:38;24.97;;;15.40;;
70373;SDS011;57792;49.198;7.890;2022-08-19T02:54:39;25.60;;;15.83;;
70373;SDS011;57792;49.198;7.890;2022-08-19T02:55:43;26.83;;;15.75;;
70373;SDS011;57792;49.198;7.890;2022-08-19T02:56:45;25.80;;;15.57;;
70373;SDS011;57792;49.198;7.890;2022-08-19T02:57:46;25.17;;;15.90;;
70373;SDS011;57792;49.198;7.890;2022-08-19T02:58:47;28.95;;;18.15;;
70373;SDS011;57792;49.198;7.890;2022-08-19T02:59:48;25.50;;;15.90;;
70373;SDS011;57792;49.198;7.890;2022-08-19T03:00:53;26.52;;;16.35;;
70373;SDS011;57792;49.198;7.890;2022-08-19T03:01:55;28.97;;;16.80;;
70373;SDS011;57792;49.198;7.890;2022-08-19T03:02:56;24.05;;;15.35;;
70373;SDS011;57792;49.198;7.890;2022-08-19T03:03:56;25.13;;;15.93;;
70373;SDS011;57792;49.198;7.890;2022-08-19T03:04:59;25.15;;;15.75;;
70373;SDS011;57792;49.198;7.890;2022-08-19T03:06:05;26.17;;;15.95;;
70373;SDS011;57792;49.198;7.890;2022-08-19T03:07:13;25.13;;;15.85;;
70373;SDS011;57792;49.198;7.890;2022-08-19T03:08:14;26.58;;;16.08;;
70373;SDS011;57792;49.198;7.890;2022-08-19T03:09:15;25.57;;;15.10;;
70373;SDS011;57792;49.198;7.890;2022-08-19T03:10:17;28.38;;;15.93;;
70373;SDS011;57792;49.198;7.890;2022-08-19T03:11:19;27.15;;;15.38;;
70373;SDS011;57792;49.198;7.890;2022-08-19T03:12:24;27.58;;;16.13;;
70373;SDS011;57792;49.198;7.890;2022-08-19T03:13:25;26.97;;;16.17;;
70373;SDS011;57792;49.198;7.890;2022-08-19T03:14:26;26.42;;;16.45;;
70373;SDS011;57792;49.198;7.890;2022-08-19T03:15:27;26.00;;;15.77;;
70373;SDS011;57792;49.198;7.890;2022-08-19T03:16:29;29.77;;;16.80;;
70373;SDS011;57792;49.198;7.890;2022-08-19T03:17:31;30.17;;;17.17;;
70373;SDS011;57792;49.198;7.890;2022-08-19T03:18:31;26.17;;;15.50;;
70373;SDS011;57792;49.198;7.890;2022-08-19T03:19:32;26.98;;;16.42;;
70373;SDS011;57792;49.198;7.890;2022-08-19T03:20:32;29.40;;;16.60;;
70373;SDS011;57792;49.198;7.890;2022-08-19T03:21:33;28.87;;;17.00;;
70373;SDS011;57792;49.198;7.890;2022-08-19T03:22:34;27.48;;;16.45;;
70373;SDS011;57792;49.198;7.890;2022-08-19T03:23:35;28.30;;;16.77;;
70373;SDS011;57792;49.198;7.890;2022-08-19T03:24:36;24.83;;;15.90;;
70373;SDS011;57792;49.198;7.890;2022-08-19T03:25:41;26.20;;;15.95;;
70373;SDS011;57792;49.198;7.890;2022-08-19T03:26:48;28.85;;;16.55;;
70373;SDS011;57792;49.198;7.890;2022-08-19T03:27:51;27.98;;;17.33;;
70373;SDS011;57792;49.198;7.890;2022-08-19T03:28:51;26.30;;;16.23;;
70373;SDS011;57792;49.198;7.890;2022-08-19T03:29:51;25.73;;;16.30;;
70373;SDS011;57792;49.198;7.890;2022-08-19T03:31:00;30.48;;;16.80;;
70373;SDS011;57792;49.198;7.890;2022-08-19T03:32:03;28.15;;;16.77;;
70373;SDS011;57792;49.198;7.890;2022-08-19T03:33:04;26.60;;;16.37;;
70373;SDS011;57792;49.198;7.890;2022-08-19T03:34:05;27.23;;;16.55;;
70373;SDS011;57792;49.198;7.890;2022-08-19T03:35:06;24.88;;;15.73;;
70373;SDS011;57792;49.198;7.890;2022-08-19T03:36:08;26.73;;;15.97;;
70373;SDS011;57792;49.198;7.890;2022-08-19T03:37:11;26.58;;;16.60;;
70373;SDS011;57792;49.198;7.890;2022-08-19T03:38:12;26.83;;;16.48;;
70373;SDS011;57792;49.198;7.890;2022-08-19T03:39:12;24.63;;;15.97;;
70373;SDS011;57792;49.198;7.890;2022-08-19T03:40:14;24.67;;;15.50;;
70373;SDS011;57792;49.198;7.890;2022-08-19T03:41:16;27.37;;;15.97;;
70373;SDS011;57792;49.198;7.890;2022-08-19T03:42:18;25.95;;;16.00;;
70373;SDS011;57792;49.198;7.890;2022-08-19T03:43:19;25.90;;;16.40;;
70373;SDS011;57792;49.198;7.890;2022-08-19T03:44:20;28.88;;;17.30;;
70373;SDS011;57792;49.198;7.890;2022-08-19T03:45:22;30.60;;;18.05;;
70373;SDS011;57792;49.198;7.890;2022-08-19T03:46:24;28.88;;;16.60;;
70373;SDS011;57792;49.198;7.890;2022-08-19T03:47:27;26.80;;;16.60;;
70373;SDS011;57792;49.198;7.890;2022-08-19T03:48:27;37.90;;;18.65;;
70373;SDS011;57792;49.198;7.890;2022-08-19T03:49:28;31.20;;;17.83;;
70373;SDS011;57792;49.198;7.890;2022-08-19T03:50:30;30.73;;;17.25;;
70373;SDS011;57792;49.198;7.890;2022-08-19T03:51:31;33.97;;;17.60;;
70373;SDS011;57792;49.198;7.890;2022-08-19T03:52:34;27.35;;;16.23;;
70373;SDS011;57792;49.198;7.890;2022-08-19T03:53:35;33.67;;;18.30;;
70373;SDS011;57792;49.198;7.890;2022-08-19T03:54:36;31.80;;;18.37;;
70373;SDS011;57792;49.198;7.890;2022-08-19T03:55:41;31.90;;;18.02;;
70373;SDS011;57792;49.198;7.890;2022-08-19T03:56:42;30.90;;;17.90;;
70373;SDS011;57792;49.198;7.890;2022-08-19T03:57:43;32.35;;;17.40;;
70373;SDS011;57792;49.198;7.890;2022-08-19T03:58:45;39.00;;;20.92;;
70373;SDS011;57792;49.198;7.890;2022-08-19T03:59:46;28.10;;;16.70;;
70373;SDS011;57792;49.198;7.890;2022-08-19T04:00:46;34.17;;;18.60;;
70373;SDS011;57792;49.198;7.890;2022-08-19T04:01:47;36.17;;;18.83;;
70373;SDS011;57792;49.198;7.890;2022-08-19T04:02:47;29.63;;;17.43;;
70373;SDS011;57792;49.198;7.890;2022-08-19T04:03:48;28.50;;;17.33;;
70373;SDS011;57792;49.198;7.890;2022-08-19T04:04:49;30.07;;;17.07;;
70373;SDS011;57792;49.198;7.890;2022-08-19T04:05:53;27.02;;;16.20;;
70373;SDS011;57792;49.198;7.890;2022-08-19T04:06:53;28.92;;;17.42;;
70373;SDS011;57792;49.198;7.890;2022-08-19T04:07:54;29.10;;;17.20;;
70373;SDS011;57792;49.198;7.890;2022-08-19T04:08:59;27.27;;;16.60;;
70373;SDS011;57792;49.198;7.890;2022-08-19T04:10:01;27.67;;;16.95;;
70373;SDS011;57792;49.198;7.890;2022-08-19T04:11:05;28.55;;;16.02;;
70373;SDS011;57792;49.198;7.890;2022-08-19T04:12:07;26.40;;;16.00;;
70373;SDS011;57792;49.198;7.890;2022-08-19T04:13:08;31.08;;;17.58;;
70373;SDS011;57792;49.198;7.890;2022-08-19T04:14:09;26.97;;;16.57;;
70373;SDS011;57792;49.198;7.890;2022-08-19T04:15:11;28.65;;;16.80;;
70373;SDS011;57792;49.198;7.890;2022-08-19T04:16:12;26.43;;;16.80;;
70373;SDS011;57792;49.198;7.890;2022-08-19T04:17:12;29.75;;;16.98;;
70373;SDS011;57792;49.198;7.890;2022-08-19T04:18:13;28.20;;;17.23;;
70373;SDS011;57792;49.198;7.890;2022-08-19T04:19:15;27.75;;;16.90;;
70373;SDS011;57792;49.198;7.890;2022-08-19T04:20:16;27.17;;;16.90;;
70373;SDS011;57792;49.198;7.890;2022-08-19T04:21:18;28.17;;;16.57;;
70373;SDS011;57792;49.198;7.890;2022-08-19T04:22:22;27.00;;;16.85;;
70373;SDS011;57792;49.198;7.890;2022-08-19T04:23:22;26.43;;;16.83;;
70373;SDS011;57792;49.198;7.890;2022-08-19T04:24:23;27.20;;;16.98;;
70373;SDS011;57792;49.198;7.890;2022-08-19T04:25:24;27.97;;;17.20;;
70373;SDS011;57792;49.198;7.890;2022-08-19T04:26:25;27.07;;;16.07;;
70373;SDS011;57792;49.198;7.890;2022-08-19T04:27:28;29.10;;;16.73;;
70373;SDS011;57792;49.198;7.890;2022-08-19T04:28:29;26.85;;;16.77;;
70373;SDS011;57792;49.198;7.890;2022-08-19T04:29:29;27.43;;;15.13;;
70373;SDS011;57792;49.198;7.890;2022-08-19T04:30:30;26.58;;;16.58;;
70373;SDS011;57792;49.198;7.890;2022-08-19T04:31:31;26.13;;;15.93;;
70373;SDS011;57792;49.198;7.890;2022-08-19T04:32:35;31.00;;;16.65;;
70373;SDS011;57792;49.198;7.890;2022-08-19T04:33:35;29.47;;;17.43;;
70373;SDS011;57792;49.198;7.890;2022-08-19T04:34:36;31.35;;;16.73;;
70373;SDS011;57792;49.198;7.890;2022-08-19T04:35:40;27.52;;;16.35;;
70373;SDS011;57792;49.198;7.890;2022-08-19T04:36:44;29.63;;;16.93;;
70373;SDS011;57792;49.198;7.890;2022-08-19T04:37:44;29.05;;;17.02;;
70373;SDS011;57792;49.198;7.890;2022-08-19T04:38:45;29.35;;;17.58;;
70373;SDS011;57792;49.198;7.890;2022-08-19T04:39:45;30.80;;;17.23;;
70373;SDS011;57792;49.198;7.890;2022-08-19T04:41:04;30.38;;;17.73;;
70373;SDS011;57792;49.198;7.890;2022-08-19T04:42:23;33.03;;;17.63;;
70373;SDS011;57792;49.198;7.890;2022-08-19T04:43:38;30.98;;;17.27;;
70373;SDS011;57792;49.198;7.890;2022-08-19T04:44:39;31.87;;;18.63;;
70373;SDS011;57792;49.198;7.890;2022-08-19T04:45:39;34.40;;;19.57;;
70373;SDS011;57792;49.198;7.890;2022-08-19T04:46:40;31.58;;;19.50;;
70373;SDS011;57792;49.198;7.890;2022-08-19T04:47:41;34.53;;;19.93;;
70373;SDS011;57792;49.198;7.890;2022-08-19T04:48:44;31.27;;;18.30;;
70373;SDS011;57792;49.198;7.890;2022-08-19T04:49:44;30.60;;;18.13;;
70373;SDS011;57792;49.198;7.890;2022-08-19T04:50:45;31.92;;;19.05;;
70373;SDS011;57792;49.198;7.890;2022-08-19T04:51:46;29.17;;;17.77;;
70373;SDS011;57792;49.198;7.890;2022-08-19T04:52:49;33.28;;;19.17;;
70373;SDS011;57792;49.198;7.890;2022-08-19T04:53:50;30.52;;;17.88;;
70373;SDS011;57792;49.198;7.890;2022-08-19T04:54:52;30.25;;;18.67;;
70373;SDS011;57792;49.198;7.890;2022-08-19T04:55:55;30.85;;;17.73;;
70373;SDS011;57792;49.198;7.890;2022-08-19T04:56:56;31.35;;;17.10;;
70373;SDS011;57792;49.198;7.890;2022-08-19T04:57:57;32.40;;;19.63;;
70373;SDS011;57792;49.198;7.890;2022-08-19T04:58:57;38.83;;;21.27;;
70373;SDS011;57792;49.198;7.890;2022-08-19T04:59:57;33.43;;;18.60;;
70373;SDS011;57792;49.198;7.890;2022-08-19T05:00:58;32.75;;;19.98;;
70373;SDS011;57792;49.198;7.890;2022-08-19T05:02:00;34.77;;;20.63;;
70373;SDS011;57792;49.198;7.890;2022-08-19T05:03:00;33.03;;;20.23;;
70373;SDS011;57792;49.198;7.890;2022-08-19T05:04:03;34.13;;;20.20;;
70373;SDS011;57792;49.198;7.890;2022-08-19T05:05:04;36.45;;;21.67;;
70373;SDS011;57792;49.198;7.890;2022-08-19T05:06:07;33.05;;;20.10;;
70373;SDS011;57792;49.198;7.890;2022-08-19T05:07:10;36.05;;;20.45;;
70373;SDS011;57792;49.198;7.890;2022-08-19T05:08:11;39.20;;;21.83;;
70373;SDS011;57792;49.198;7.890;2022-08-19T05:09:19;36.85;;;20.38;;
70373;SDS011;57792;49.198;7.890;2022-08-19T05:10:21;38.88;;;21.73;;
70373;SDS011;57792;49.198;7.890;2022-08-19T05:11:23;36.60;;;20.97;;
70373;SDS011;57792;49.198;7.890;2022-08-19T05:12:25;35.60;;;20.98;;
70373;SDS011;57792;49.198;7.890;2022-08-19T05:13:28;34.72;;;20.65;;
70373;SDS011;57792;49.198;7.890;2022-08-19T05:14:29;34.23;;;19.07;;
70373;SDS011;57792;49.198;7.890;2022-08-19T05:15:29;38.03;;;20.63;;
70373;SDS011;57792;49.198;7.890;2022-08-19T05:16:30;35.22;;;20.67;;
70373;SDS011;57792;49.198;7.890;2022-08-19T05:17:31;32.13;;;19.50;;
70373;SDS011;57792;49.198;7.890;2022-08-19T05:18:31;33.13;;;19.80;;
70373;SDS011;57792;49.198;7.890;2022-08-19T05:19:50;31.83;;;20.23;;
70373;SDS011;57792;49.198;7.890;2022-08-19T05:21:10;34.60;;;20.38;;
70373;SDS011;57792;49.198;7.890;2022-08-19T05:22:31;32.42;;;18.70;;
70373;SDS011;57792;49.198;7.890;2022-08-19T05:23:34;33.80;;;18.92;;
70373;SDS011;57792;49.198;7.890;2022-08-19T05:24:34;33.70;;;20.57;;
70373;SDS011;57792;49.198;7.890;2022-08-19T05:25:38;32.60;;;19.55;;
70373;SDS011;57792;49.198;7.890;2022-08-19T05:26:40;30.83;;;18.35;;
70373;SDS011;57792;49.198;7.890;2022-08-19T05:27:46;32.90;;;18.83;;
70373;SDS011;57792;49.198;7.890;2022-08-19T05:28:47;31.27;;;18.25;;
70373;SDS011;57792;49.198;7.890;2022-08-19T05:29:48;29.48;;;18.30;;
70373;SDS011;57792;49.198;7.890;2022-08-19T05:30:48;28.53;;;18.30;;
70373;SDS011;57792;49.198;7.890;2022-08-19T05:31:51;31.20;;;18.38;;
70373;SDS011;57792;49.198;7.890;2022-08-19T05:32:52;31.10;;;18.13;;
70373;SDS011;57792;49.198;7.890;2022-08-19T05:33:53;27.27;;;17.17;;
70373;SDS011;57792;49.198;7.890;2022-08-19T05:34:53;27.23;;;17.30;;
70373;SDS011;57792;49.198;7.890;2022-08-19T05:35:53;28.77;;;18.40;;
70373;SDS011;57792;49.198;7.890;2022-08-19T05:36:56;27.55;;;17.33;;
70373;SDS011;57792;49.198;7.890;2022-08-19T05:37:57;28.25;;;17.88;;
70373;SDS011;57792;49.198;7.890;2022-08-19T05:38:58;26.93;;;17.90;;
70373;SDS011;57792;49.198;7.890;2022-08-19T05:39:58;27.13;;;17.33;;
70373;SDS011;57792;49.198;7.890;2022-08-19T05:40:59;27.23;;;17.90;;
70373;SDS011;57792;49.198;7.890;2022-08-19T05:42:04;27.90;;;17.40;;
70373;SDS011;57792;49.198;7.890;2022-08-19T05:43:07;28.05;;;17.23;;
70373;SDS011;57792;49.198;7.890;2022-08-19T05:44:08;28.67;;;17.48;;
70373;SDS011;57792;49.198;7.890;2022-08-19T05:45:09;27.95;;;17.15;;
70373;SDS011;57792;49.198;7.890;2022-08-19T05:46:15;28.55;;;17.58;;
70373;SDS011;57792;49.198;7.890;2022-08-19T05:47:18;27.50;;;16.77;;
70373;SDS011;57792;49.198;7.890;2022-08-19T05:48:19;26.90;;;17.50;;
70373;SDS011;57792;49.198;7.890;2022-08-19T05:49:21;26.47;;;17.23;;
70373;SDS011;57792;49.198;7.890;2022-08-19T05:50:22;30.17;;;17.77;;
70373;SDS011;57792;49.198;7.890;2022-08-19T05:51:23;25.97;;;16.73;;
70373;SDS011;57792;49.198;7.890;2022-08-19T05:52:24;28.05;;;17.90;;
70373;SDS011;57792;49.198;7.890;2022-08-19T05:53:26;28.45;;;17.17;;
70373;SDS011;57792;49.198;7.890;2022-08-19T05:54:26;27.60;;;17.60;;
70373;SDS011;57792;49.198;7.890;2022-08-19T05:55:27;26.83;;;18.10;;
70373;SDS011;57792;49.198;7.890;2022-08-19T05:56:27;31.48;;;17.88;;
70373;SDS011;57792;49.198;7.890;2022-08-19T05:57:28;28.70;;;17.03;;
70373;SDS011;57792;49.198;7.890;2022-08-19T05:58:28;30.42;;;18.88;;
70373;SDS011;57792;49.198;7.890;2022-08-19T05:59:29;31.53;;;17.30;;
70373;SDS011;57792;49.198;7.890;2022-08-19T06:00:29;27.47;;;17.63;;
70373;SDS011;57792;49.198;7.890;2022-08-19T06:01:31;25.80;;;17.00;;
70373;SDS011;57792;49.198;7.890;2022-08-19T06:02:31;29.10;;;17.60;;
70373;SDS011;57792;49.198;7.890;2022-08-19T06:03:32;24.43;;;16.93;;